Stony Knoll, North Carolina
Current Conditions -  °F | °C
As of 1:15 AM on Monday 26 Jan 2015 (Local Time) from KMWK Reporting Station
Scattered Clouds Scattered Clouds  
Wind Chill: 44°   Ceiling: Unl
Heat Index: 44°   Visibility: 10mi
Dew Point: 33°   Wind: 3mph
Humidity: 66%   Direction: 130°SE
Pressure: 29.69"   Gusts: NA
Location:  36.3461°N, 80.7011°W
Report Text: KMWK 260615Z AUTO 13003KT 10SM SCT090 07/01 A2969 RMK AO2 T00660006
Loading
Personal Weather Stations






























Interactive Weather Map New forecast layout! Learn more

10-Day Weather Forecast

Advertisements
Track Severe Weather on mobile